sensor_id;sensor_type;location;lat;lon;timestamp;temperature;humidity
2409;DHT22;8463;48.094;7.970;2023-07-08T00:00:30;23.10;1.00
2409;DHT22;8463;48.094;7.970;2023-07-08T00:02:58;23.10;1.00
2409;DHT22;8463;48.094;7.970;2023-07-08T00:05:25;23.00;1.00
2409;DHT22;8463;48.094;7.970;2023-07-08T00:07:56;23.00;1.00
2409;DHT22;8463;48.094;7.970;2023-07-08T00:10:24;23.10;1.00
2409;DHT22;8463;48.094;7.970;2023-07-08T00:12:52;23.10;1.00
2409;DHT22;8463;48.094;7.970;2023-07-08T00:15:20;23.00;1.00
2409;DHT22;8463;48.094;7.970;2023-07-08T00:17:46;23.00;1.00
2409;DHT22;8463;48.094;7.970;2023-07-08T00:20:31;22.90;1.00
2409;DHT22;8463;48.094;7.970;2023-07-08T00:22:57;22.90;1.00
2409;DHT22;8463;48.094;7.970;2023-07-08T00:25:28;22.90;1.00
2409;DHT22;8463;48.094;7.970;2023-07-08T00:27:55;22.90;1.00
2409;DHT22;8463;48.094;7.970;2023-07-08T00:30:24;22.80;1.00
2409;DHT22;8463;48.094;7.970;2023-07-08T00:32:52;22.80;1.00
2409;DHT22;8463;48.094;7.970;2023-07-08T00:35:33;22.80;1.00
2409;DHT22;8463;48.094;7.970;2023-07-08T00:38:00;22.80;1.00
2409;DHT22;8463;48.094;7.970;2023-07-08T00:40:30;22.80;1.00
2409;DHT22;8463;48.094;7.970;2023-07-08T00:43:02;22.80;1.00
2409;DHT22;8463;48.094;7.970;2023-07-08T00:45:38;22.70;1.00
2409;DHT22;8463;48.094;7.970;2023-07-08T00:48:28;22.70;1.00
2409;DHT22;8463;48.094;7.970;2023-07-08T00:50:54;22.60;1.00
2409;DHT22;8463;48.094;7.970;2023-07-08T00:58:34;22.70;1.00
2409;DHT22;8463;48.094;7.970;2023-07-08T01:01:09;22.60;1.00
2409;DHT22;8463;48.094;7.970;2023-07-08T01:06:38;22.60;1.00
2409;DHT22;8463;48.094;7.970;2023-07-08T01:09:06;22.50;1.00
2409;DHT22;8463;48.094;7.970;2023-07-08T01:11:33;22.40;1.00
2409;DHT22;8463;48.094;7.970;2023-07-08T01:14:02;22.50;1.00
2409;DHT22;8463;48.094;7.970;2023-07-08T01:16:30;22.40;1.00
2409;DHT22;8463;48.094;7.970;2023-07-08T01:18:59;22.40;1.00
2409;DHT22;8463;48.094;7.970;2023-07-08T01:21:33;22.40;1.00
2409;DHT22;8463;48.094;7.970;2023-07-08T01:24:01;22.40;1.00
2409;DHT22;8463;48.094;7.970;2023-07-08T01:26:29;22.50;1.00
2409;DHT22;8463;48.094;7.970;2023-07-08T01:28:58;22.30;1.00
2409;DHT22;8463;48.094;7.970;2023-07-08T01:31:23;22.20;1.00
2409;DHT22;8463;48.094;7.970;2023-07-08T01:33:51;22.10;1.00
2409;DHT22;8463;48.094;7.970;2023-07-08T01:36:22;22.00;1.00
2409;DHT22;8463;48.094;7.970;2023-07-08T01:38:50;22.00;1.00
2409;DHT22;8463;48.094;7.970;2023-07-08T01:41:22;22.10;1.00
2409;DHT22;8463;48.094;7.970;2023-07-08T01:43:47;22.10;1.00
2409;DHT22;8463;48.094;7.970;2023-07-08T01:46:28;22.10;1.00
2409;DHT22;8463;48.094;7.970;2023-07-08T01:48:56;22.20;1.00
2409;DHT22;8463;48.094;7.970;2023-07-08T01:51:24;22.00;1.00
2409;DHT22;8463;48.094;7.970;2023-07-08T01:53:51;21.90;1.00
2409;DHT22;8463;48.094;7.970;2023-07-08T01:56:17;22.00;1.00
2409;DHT22;8463;48.094;7.970;2023-07-08T01:58:42;21.80;1.00
2409;DHT22;8463;48.094;7.970;2023-07-08T02:01:08;21.80;1.00
2409;DHT22;8463;48.094;7.970;2023-07-08T02:03:35;21.80;1.00
2409;DHT22;8463;48.094;7.970;2023-07-08T02:06:01;21.80;1.00
2409;DHT22;8463;48.094;7.970;2023-07-08T02:08:27;21.70;1.00
2409;DHT22;8463;48.094;7.970;2023-07-08T02:10:55;21.80;1.00
2409;DHT22;8463;48.094;7.970;2023-07-08T02:13:22;21.80;1.00
2409;DHT22;8463;48.094;7.970;2023-07-08T02:15:48;21.70;1.00
2409;DHT22;8463;48.094;7.970;2023-07-08T02:18:14;21.70;1.00
2409;DHT22;8463;48.094;7.970;2023-07-08T02:20:41;21.80;1.00
2409;DHT22;8463;48.094;7.970;2023-07-08T02:23:07;21.80;1.00
2409;DHT22;8463;48.094;7.970;2023-07-08T02:25:36;21.60;1.00
2409;DHT22;8463;48.094;7.970;2023-07-08T02:28:03;21.60;1.00
2409;DHT22;8463;48.094;7.970;2023-07-08T02:30:31;21.60;1.00
2409;DHT22;8463;48.094;7.970;2023-07-08T02:32:59;21.40;1.00
2409;DHT22;8463;48.094;7.970;2023-07-08T02:35:26;21.40;1.00
2409;DHT22;8463;48.094;7.970;2023-07-08T02:37:58;21.50;1.00
2409;DHT22;8463;48.094;7.970;2023-07-08T02:40:24;21.40;1.00
2409;DHT22;8463;48.094;7.970;2023-07-08T02:42:50;21.40;1.00
2409;DHT22;8463;48.094;7.970;2023-07-08T02:45:22;21.20;1.00
2409;DHT22;8463;48.094;7.970;2023-07-08T02:50:13;20.80;1.00
2409;DHT22;8463;48.094;7.970;2023-07-08T02:52:39;20.90;1.00
2409;DHT22;8463;48.094;7.970;2023-07-08T02:55:05;21.00;1.00
2409;DHT22;8463;48.094;7.970;2023-07-08T02:57:33;21.00;1.00
2409;DHT22;8463;48.094;7.970;2023-07-08T02:59:58;21.00;1.00
2409;DHT22;8463;48.094;7.970;2023-07-08T03:02:24;21.10;1.00
2409;DHT22;8463;48.094;7.970;2023-07-08T03:04:51;21.20;1.00
2409;DHT22;8463;48.094;7.970;2023-07-08T03:07:20;21.30;1.00
2409;DHT22;8463;48.094;7.970;2023-07-08T03:09:45;21.40;1.00
2409;DHT22;8463;48.094;7.970;2023-07-08T03:12:11;21.30;1.00
2409;DHT22;8463;48.094;7.970;2023-07-08T03:14:40;21.20;1.00
2409;DHT22;8463;48.094;7.970;2023-07-08T03:17:08;21.20;1.00
2409;DHT22;8463;48.094;7.970;2023-07-08T03:19:33;21.20;1.00
2409;DHT22;8463;48.094;7.970;2023-07-08T03:22:08;21.30;1.00
2409;DHT22;8463;48.094;7.970;2023-07-08T03:24:34;21.30;1.00
2409;DHT22;8463;48.094;7.970;2023-07-08T03:27:00;21.30;1.00
2409;DHT22;8463;48.094;7.970;2023-07-08T03:29:30;21.30;1.00
2409;DHT22;8463;48.094;7.970;2023-07-08T03:31:59;21.20;1.00
2409;DHT22;8463;48.094;7.970;2023-07-08T03:36:51;21.20;1.00
2409;DHT22;8463;48.094;7.970;2023-07-08T03:39:21;21.10;1.00
2409;DHT22;8463;48.094;7.970;2023-07-08T03:41:48;21.20;1.00
2409;DHT22;8463;48.094;7.970;2023-07-08T03:44:14;21.20;1.00
2409;DHT22;8463;48.094;7.970;2023-07-08T03:46:45;21.20;1.00
2409;DHT22;8463;48.094;7.970;2023-07-08T03:49:11;21.30;1.00
2409;DHT22;8463;48.094;7.970;2023-07-08T03:51:43;21.30;1.00
2409;DHT22;8463;48.094;7.970;2023-07-08T03:54:11;21.20;1.00
2409;DHT22;8463;48.094;7.970;2023-07-08T03:56:40;21.20;1.00
2409;DHT22;8463;48.094;7.970;2023-07-08T03:59:06;21.10;1.00
2409;DHT22;8463;48.094;7.970;2023-07-08T04:03:59;21.40;1.00
2409;DHT22;8463;48.094;7.970;2023-07-08T04:06:25;21.50;1.00
2409;DHT22;8463;48.094;7.970;2023-07-08T04:08:55;21.50;1.00
2409;DHT22;8463;48.094;7.970;2023-07-08T04:11:23;21.60;1.00
2409;DHT22;8463;48.094;7.970;2023-07-08T04:13:50;21.60;1.00
2409;DHT22;8463;48.094;7.970;2023-07-08T04:16:28;21.70;1.00
2409;DHT22;8463;48.094;7.970;2023-07-08T04:19:02;21.80;1.00
2409;DHT22;8463;48.094;7.970;2023-07-08T04:21:27;21.80;1.00
2409;DHT22;8463;48.094;7.970;2023-07-08T04:23:55;21.90;1.00
2409;DHT22;8463;48.094;7.970;2023-07-08T04:26:20;22.00;1.00
2409;DHT22;8463;48.094;7.970;2023-07-08T04:28:54;22.00;1.00
2409;DHT22;8463;48.094;7.970;2023-07-08T04:31:19;22.10;1.00
2409;DHT22;8463;48.094;7.970;2023-07-08T04:33:45;22.10;1.00
2409;DHT22;8463;48.094;7.970;2023-07-08T04:36:13;22.10;1.00
2409;DHT22;8463;48.094;7.970;2023-07-08T04:38:41;22.00;1.00
2409;DHT22;8463;48.094;7.970;2023-07-08T04:41:08;22.00;1.00
2409;DHT22;8463;48.094;7.970;2023-07-08T04:43:34;22.00;1.00
2409;DHT22;8463;48.094;7.970;2023-07-08T04:45:59;22.00;1.00
2409;DHT22;8463;48.094;7.970;2023-07-08T04:48:25;21.90;1.00
2409;DHT22;8463;48.094;7.970;2023-07-08T04:50:53;21.80;1.00
2409;DHT22;8463;48.094;7.970;2023-07-08T04:53:19;21.60;1.00
2409;DHT22;8463;48.094;7.970;2023-07-08T04:55:54;21.40;1.00
2409;DHT22;8463;48.094;7.970;2023-07-08T04:58:21;21.20;1.00
2409;DHT22;8463;48.094;7.970;2023-07-08T05:00:46;20.90;1.00
2409;DHT22;8463;48.094;7.970;2023-07-08T05:03:12;20.70;1.00
2409;DHT22;8463;48.094;7.970;2023-07-08T05:05:38;20.70;1.00
2409;DHT22;8463;48.094;7.970;2023-07-08T05:08:04;20.80;1.00
2409;DHT22;8463;48.094;7.970;2023-07-08T05:10:29;20.80;1.00
2409;DHT22;8463;48.094;7.970;2023-07-08T05:12:57;20.90;1.00
2409;DHT22;8463;48.094;7.970;2023-07-08T05:17:52;21.00;1.00
2409;DHT22;8463;48.094;7.970;2023-07-08T05:20:18;21.00;1.00
2409;DHT22;8463;48.094;7.970;2023-07-08T05:22:46;21.00;1.00
2409;DHT22;8463;48.094;7.970;2023-07-08T05:25:15;21.00;1.00
2409;DHT22;8463;48.094;7.970;2023-07-08T05:27:48;20.90;1.00
2409;DHT22;8463;48.094;7.970;2023-07-08T05:30:17;20.90;1.00
2409;DHT22;8463;48.094;7.970;2023-07-08T05:32:45;20.80;1.00
2409;DHT22;8463;48.094;7.970;2023-07-08T05:35:13;20.90;1.00
2409;DHT22;8463;48.094;7.970;2023-07-08T05:37:39;21.00;1.00
2409;DHT22;8463;48.094;7.970;2023-07-08T05:40:06;21.10;1.00
2409;DHT22;8463;48.094;7.970;2023-07-08T05:42:35;21.30;1.00
2409;DHT22;8463;48.094;7.970;2023-07-08T05:45:02;21.40;1.00
2409;DHT22;8463;48.094;7.970;2023-07-08T05:47:30;21.60;1.00
2409;DHT22;8463;48.094;7.970;2023-07-08T05:49:57;21.60;1.00
2409;DHT22;8463;48.094;7.970;2023-07-08T05:52:23;21.60;1.00
2409;DHT22;8463;48.094;7.970;2023-07-08T05:54:48;21.70;1.00
2409;DHT22;8463;48.094;7.970;2023-07-08T05:57:14;21.70;1.00
2409;DHT22;8463;48.094;7.970;2023-07-08T05:59:47;21.70;1.00
2409;DHT22;8463;48.094;7.970;2023-07-08T06:02:13;21.70;1.00
2409;DHT22;8463;48.094;7.970;2023-07-08T06:04:39;21.70;1.00
2409;DHT22;8463;48.094;7.970;2023-07-08T06:07:05;21.80;1.00
2409;DHT22;8463;48.094;7.970;2023-07-08T06:09:35;21.90;1.00
2409;DHT22;8463;48.094;7.970;2023-07-08T06:12:00;22.00;1.00
2409;DHT22;8463;48.094;7.970;2023-07-08T06:14:30;22.10;1.00
2409;DHT22;8463;48.094;7.970;2023-07-08T06:16:58;22.10;1.00
2409;DHT22;8463;48.094;7.970;2023-07-08T06:19:24;22.30;1.00
2409;DHT22;8463;48.094;7.970;2023-07-08T06:21:50;22.40;1.00
2409;DHT22;8463;48.094;7.970;2023-07-08T06:24:16;22.60;1.00
2409;DHT22;8463;48.094;7.970;2023-07-08T06:26:42;22.70;1.00
2409;DHT22;8463;48.094;7.970;2023-07-08T06:29:07;22.80;1.00
2409;DHT22;8463;48.094;7.970;2023-07-08T06:31:39;22.80;1.00
2409;DHT22;8463;48.094;7.970;2023-07-08T06:36:31;22.80;1.00
2409;DHT22;8463;48.094;7.970;2023-07-08T06:38:59;22.90;1.00
2409;DHT22;8463;48.094;7.970;2023-07-08T06:41:25;23.00;1.00
2409;DHT22;8463;48.094;7.970;2023-07-08T06:43:50;23.00;1.00
2409;DHT22;8463;48.094;7.970;2023-07-08T06:46:17;23.10;1.00
2409;DHT22;8463;48.094;7.970;2023-07-08T06:48:44;23.20;1.00
2409;DHT22;8463;48.094;7.970;2023-07-08T06:51:10;23.20;1.00
2409;DHT22;8463;48.094;7.970;2023-07-08T06:56:05;23.30;1.00
2409;DHT22;8463;48.094;7.970;2023-07-08T06:58:30;23.40;1.00
2409;DHT22;8463;48.094;7.970;2023-07-08T07:00:56;23.40;1.00
2409;DHT22;8463;48.094;7.970;2023-07-08T07:03:22;23.40;1.00
2409;DHT22;8463;48.094;7.970;2023-07-08T07:05:57;23.50;1.00
2409;DHT22;8463;48.094;7.970;2023-07-08T07:10:51;23.60;1.00
2409;DHT22;8463;48.094;7.970;2023-07-08T07:13:17;23.60;1.00
2409;DHT22;8463;48.094;7.970;2023-07-08T07:15:43;23.70;1.00
2409;DHT22;8463;48.094;7.970;2023-07-08T07:18:09;23.50;1.00
2409;DHT22;8463;48.094;7.970;2023-07-08T07:20:37;23.30;1.00
2409;DHT22;8463;48.094;7.970;2023-07-08T07:23:06;23.10;1.00
2409;DHT22;8463;48.094;7.970;2023-07-08T07:25:31;23.00;1.00
2409;DHT22;8463;48.094;7.970;2023-07-08T07:27:57;23.10;1.00
2409;DHT22;8463;48.094;7.970;2023-07-08T07:30:24;23.40;1.00
2409;DHT22;8463;48.094;7.970;2023-07-08T07:32:49;23.60;1.00
2409;DHT22;8463;48.094;7.970;2023-07-08T07:35:15;23.50;1.00
2409;DHT22;8463;48.094;7.970;2023-07-08T07:37:42;23.50;1.00
2409;DHT22;8463;48.094;7.970;2023-07-08T07:40:10;23.10;1.00
2409;DHT22;8463;48.094;7.970;2023-07-08T07:42:39;23.10;1.00
2409;DHT22;8463;48.094;7.970;2023-07-08T07:45:08;22.80;1.00
2409;DHT22;8463;48.094;7.970;2023-07-08T07:47:34;22.80;1.00
2409;DHT22;8463;48.094;7.970;2023-07-08T07:50:00;23.00;1.00
2409;DHT22;8463;48.094;7.970;2023-07-08T07:52:26;22.90;1.00
2409;DHT22;8463;48.094;7.970;2023-07-08T07:54:52;23.00;1.00
2409;DHT22;8463;48.094;7.970;2023-07-08T07:57:19;23.00;1.00
2409;DHT22;8463;48.094;7.970;2023-07-08T07:59:46;23.20;1.00
2409;DHT22;8463;48.094;7.970;2023-07-08T08:02:15;23.10;1.00
2409;DHT22;8463;48.094;7.970;2023-07-08T08:04:41;23.40;1.00
2409;DHT22;8463;48.094;7.970;2023-07-08T08:07:06;23.30;1.00
2409;DHT22;8463;48.094;7.970;2023-07-08T08:09:36;23.50;1.00
2409;DHT22;8463;48.094;7.970;2023-07-08T08:12:03;23.50;1.00
2409;DHT22;8463;48.094;7.970;2023-07-08T08:14:31;23.70;1.00
2409;DHT22;8463;48.094;7.970;2023-07-08T08:16:57;23.90;1.00
2409;DHT22;8463;48.094;7.970;2023-07-08T08:19:22;24.20;1.00
2409;DHT22;8463;48.094;7.970;2023-07-08T08:21:49;24.20;1.00
2409;DHT22;8463;48.094;7.970;2023-07-08T08:24:22;24.40;1.00
2409;DHT22;8463;48.094;7.970;2023-07-08T08:26:58;24.40;1.00
2409;DHT22;8463;48.094;7.970;2023-07-08T08:29:25;24.50;1.00
2409;DHT22;8463;48.094;7.970;2023-07-08T08:31:53;24.20;1.00
2409;DHT22;8463;48.094;7.970;2023-07-08T08:34:20;24.10;1.00
2409;DHT22;8463;48.094;7.970;2023-07-08T08:36:45;24.00;1.00
2409;DHT22;8463;48.094;7.970;2023-07-08T08:39:11;23.90;1.00
2409;DHT22;8463;48.094;7.970;2023-07-08T08:41:38;23.70;1.00
2409;DHT22;8463;48.094;7.970;2023-07-08T08:44:14;23.60;1.00
2409;DHT22;8463;48.094;7.970;2023-07-08T08:46:42;23.60;1.00
2409;DHT22;8463;48.094;7.970;2023-07-08T08:51:50;23.60;1.00
2409;DHT22;8463;48.094;7.970;2023-07-08T08:54:16;23.70;1.00
2409;DHT22;8463;48.094;7.970;2023-07-08T08:57:02;23.60;1.00
2409;DHT22;8463;48.094;7.970;2023-07-08T08:59:55;23.50;1.00
2409;DHT22;8463;48.094;7.970;2023-07-08T09:02:59;23.50;1.00
2409;DHT22;8463;48.094;7.970;2023-07-08T09:05:27;23.70;1.00
2409;DHT22;8463;48.094;7.970;2023-07-08T09:10:51;26.10;1.00
2409;DHT22;8463;48.094;7.970;2023-07-08T09:13:36;24.30;1.00
2409;DHT22;8463;48.094;7.970;2023-07-08T09:19:13;25.50;1.00
2409;DHT22;8463;48.094;7.970;2023-07-08T09:21:48;25.50;1.00
2409;DHT22;8463;48.094;7.970;2023-07-08T09:24:27;25.60;1.00
2409;DHT22;8463;48.094;7.970;2023-07-08T09:26:55;25.70;1.00
2409;DHT22;8463;48.094;7.970;2023-07-08T09:29:27;25.60;1.00
2409;DHT22;8463;48.094;7.970;2023-07-08T09:31:55;25.80;1.00
2409;DHT22;8463;48.094;7.970;2023-07-08T09:34:36;25.60;1.00
2409;DHT22;8463;48.094;7.970;2023-07-08T09:37:03;25.60;1.00
2409;DHT22;8463;48.094;7.970;2023-07-08T09:39:49;25.50;1.00
2409;DHT22;8463;48.094;7.970;2023-07-08T09:42:19;25.80;1.00
2409;DHT22;8463;48.094;7.970;2023-07-08T09:47:24;26.40;1.00
2409;DHT22;8463;48.094;7.970;2023-07-08T09:49:57;26.60;1.00
2409;DHT22;8463;48.094;7.970;2023-07-08T09:52:24;27.00;1.00
2409;DHT22;8463;48.094;7.970;2023-07-08T09:54:50;27.50;1.00
2409;DHT22;8463;48.094;7.970;2023-07-08T09:57:36;27.90;1.00
2409;DHT22;8463;48.094;7.970;2023-07-08T10:00:14;28.20;1.00
2409;DHT22;8463;48.094;7.970;2023-07-08T10:05:52;28.80;1.00
2409;DHT22;8463;48.094;7.970;2023-07-08T10:08:34;29.30;1.00
2409;DHT22;8463;48.094;7.970;2023-07-08T10:11:33;29.20;1.00
2409;DHT22;8463;48.094;7.970;2023-07-08T10:17:00;29.00;1.00
2409;DHT22;8463;48.094;7.970;2023-07-08T10:19:26;29.10;1.00
2409;DHT22;8463;48.094;7.970;2023-07-08T10:28:25;29.40;1.00
2409;DHT22;8463;48.094;7.970;2023-07-08T10:30:44;29.70;1.00
2409;DHT22;8463;48.094;7.970;2023-07-08T10:36:24;30.00;1.00
2409;DHT22;8463;48.094;7.970;2023-07-08T10:41:55;29.70;1.00
2409;DHT22;8463;48.094;7.970;2023-07-08T11:06:55;31.00;1.00
2409;DHT22;8463;48.094;7.970;2023-07-08T11:09:43;30.30;1.00
2409;DHT22;8463;48.094;7.970;2023-07-08T11:20:18;30.70;1.00
2409;DHT22;8463;48.094;7.970;2023-07-08T11:23:15;30.70;1.00
2409;DHT22;8463;48.094;7.970;2023-07-08T11:25:46;31.00;1.00
2409;DHT22;8463;48.094;7.970;2023-07-08T11:28:19;31.30;1.00
2409;DHT22;8463;48.094;7.970;2023-07-08T11:30:47;30.80;1.00
2409;DHT22;8463;48.094;7.970;2023-07-08T11:33:17;30.40;1.00
2409;DHT22;8463;48.094;7.970;2023-07-08T11:35:54;30.10;1.00
2409;DHT22;8463;48.094;7.970;2023-07-08T11:38:25;30.20;1.00
2409;DHT22;8463;48.094;7.970;2023-07-08T11:41:01;30.20;1.00
2409;DHT22;8463;48.094;7.970;2023-07-08T11:43:51;30.30;1.00
2409;DHT22;8463;48.094;7.970;2023-07-08T11:46:22;30.30;1.00
2409;DHT22;8463;48.094;7.970;2023-07-08T11:48:52;30.80;1.00
2409;DHT22;8463;48.094;7.970;2023-07-08T11:51:23;30.90;1.00
2409;DHT22;8463;48.094;7.970;2023-07-08T11:54:00;30.90;1.00
2409;DHT22;8463;48.094;7.970;2023-07-08T11:56:57;30.90;1.00
2409;DHT22;8463;48.094;7.970;2023-07-08T11:59:24;30.90;1.00
2409;DHT22;8463;48.094;7.970;2023-07-08T12:02:00;30.30;1.00
2409;DHT22;8463;48.094;7.970;2023-07-08T12:04:33;30.30;1.00
2409;DHT22;8463;48.094;7.970;2023-07-08T12:07:19;30.40;1.00
2409;DHT22;8463;48.094;7.970;2023-07-08T12:12:27;30.30;1.00
2409;DHT22;8463;48.094;7.970;2023-07-08T12:17:44;30.70;1.00
2409;DHT22;8463;48.094;7.970;2023-07-08T12:20:32;31.10;1.00
2409;DHT22;8463;48.094;7.970;2023-07-08T12:25:33;31.40;1.00
2409;DHT22;8463;48.094;7.970;2023-07-08T12:28:05;31.30;1.00
2409;DHT22;8463;48.094;7.970;2023-07-08T12:30:32;31.40;1.00
2409;DHT22;8463;48.094;7.970;2023-07-08T12:32:59;31.90;1.00
2409;DHT22;8463;48.094;7.970;2023-07-08T12:35:33;31.90;1.00
2409;DHT22;8463;48.094;7.970;2023-07-08T12:43:11;31.30;1.00
2409;DHT22;8463;48.094;7.970;2023-07-08T12:48:05;31.40;1.00
2409;DHT22;8463;48.094;7.970;2023-07-08T12:50:31;31.40;1.00
2409;DHT22;8463;48.094;7.970;2023-07-08T12:52:56;31.60;1.00
2409;DHT22;8463;48.094;7.970;2023-07-08T12:55:23;31.80;1.00
2409;DHT22;8463;48.094;7.970;2023-07-08T12:57:51;32.10;1.00
2409;DHT22;8463;48.094;7.970;2023-07-08T13:00:30;32.40;1.00
2409;DHT22;8463;48.094;7.970;2023-07-08T13:03:02;32.30;1.00
2409;DHT22;8463;48.094;7.970;2023-07-08T13:05:33;31.90;1.00
2409;DHT22;8463;48.094;7.970;2023-07-08T13:07:59;31.60;1.00
2409;DHT22;8463;48.094;7.970;2023-07-08T13:10:26;31.60;1.00
2409;DHT22;8463;48.094;7.970;2023-07-08T13:12:56;31.50;1.00
2409;DHT22;8463;48.094;7.970;2023-07-08T13:15:28;31.50;1.00
2409;DHT22;8463;48.094;7.970;2023-07-08T13:17:59;31.80;1.00
2409;DHT22;8463;48.094;7.970;2023-07-08T13:20:25;32.20;1.00
2409;DHT22;8463;48.094;7.970;2023-07-08T13:22:55;32.20;1.00
2409;DHT22;8463;48.094;7.970;2023-07-08T13:25:28;32.50;1.00
2409;DHT22;8463;48.094;7.970;2023-07-08T13:28:00;32.30;1.00
2409;DHT22;8463;48.094;7.970;2023-07-08T13:30:29;32.40;1.00
2409;DHT22;8463;48.094;7.970;2023-07-08T13:32:57;32.40;1.00
2409;DHT22;8463;48.094;7.970;2023-07-08T13:35:36;32.40;1.00
2409;DHT22;8463;48.094;7.970;2023-07-08T13:38:05;32.70;1.00
2409;DHT22;8463;48.094;7.970;2023-07-08T13:40:31;32.80;1.00
2409;DHT22;8463;48.094;7.970;2023-07-08T13:42:57;32.60;1.00
2409;DHT22;8463;48.094;7.970;2023-07-08T13:45:26;32.30;1.00
2409;DHT22;8463;48.094;7.970;2023-07-08T13:48:14;32.30;1.00
2409;DHT22;8463;48.094;7.970;2023-07-08T13:50:57;32.60;1.00
2409;DHT22;8463;48.094;7.970;2023-07-08T13:53:51;32.90;1.00
2409;DHT22;8463;48.094;7.970;2023-07-08T13:56:23;33.00;1.00
2409;DHT22;8463;48.094;7.970;2023-07-08T13:58:59;33.10;1.00
2409;DHT22;8463;48.094;7.970;2023-07-08T14:01:29;33.10;1.00
2409;DHT22;8463;48.094;7.970;2023-07-08T14:03:56;33.30;1.00
2409;DHT22;8463;48.094;7.970;2023-07-08T14:06:27;33.60;1.00
2409;DHT22;8463;48.094;7.970;2023-07-08T14:09:11;33.60;1.00
2409;DHT22;8463;48.094;7.970;2023-07-08T14:11:37;33.70;1.00
2409;DHT22;8463;48.094;7.970;2023-07-08T14:14:03;33.60;1.00
2409;DHT22;8463;48.094;7.970;2023-07-08T14:16:30;33.40;1.00
2409;DHT22;8463;48.094;7.970;2023-07-08T14:18:58;33.20;1.00
2409;DHT22;8463;48.094;7.970;2023-07-08T14:21:31;32.70;1.00
2409;DHT22;8463;48.094;7.970;2023-07-08T14:23:57;32.90;1.00
2409;DHT22;8463;48.094;7.970;2023-07-08T14:26:24;32.90;1.00
2409;DHT22;8463;48.094;7.970;2023-07-08T14:28:50;32.80;1.00
2409;DHT22;8463;48.094;7.970;2023-07-08T14:31:21;33.10;1.00
2409;DHT22;8463;48.094;7.970;2023-07-08T14:34:02;33.60;1.00
2409;DHT22;8463;48.094;7.970;2023-07-08T14:36:28;33.90;1.00
2409;DHT22;8463;48.094;7.970;2023-07-08T14:38:57;33.70;1.00
2409;DHT22;8463;48.094;7.970;2023-07-08T14:41:25;33.60;1.00
2409;DHT22;8463;48.094;7.970;2023-07-08T14:43:50;33.20;1.00
2409;DHT22;8463;48.094;7.970;2023-07-08T14:48:42;32.90;1.00
2409;DHT22;8463;48.094;7.970;2023-07-08T14:51:08;32.50;1.00
2409;DHT22;8463;48.094;7.970;2023-07-08T14:53:40;32.40;1.00
2409;DHT22;8463;48.094;7.970;2023-07-08T14:56:14;32.70;1.00
2409;DHT22;8463;48.094;7.970;2023-07-08T14:58:44;32.80;1.00
2409;DHT22;8463;48.094;7.970;2023-07-08T15:01:18;32.80;1.00
2409;DHT22;8463;48.094;7.970;2023-07-08T15:03:45;32.80;1.00
2409;DHT22;8463;48.094;7.970;2023-07-08T15:06:13;33.00;1.00
2409;DHT22;8463;48.094;7.970;2023-07-08T15:08:44;33.30;1.00
2409;DHT22;8463;48.094;7.970;2023-07-08T15:11:11;33.60;1.00
2409;DHT22;8463;48.094;7.970;2023-07-08T15:13:43;33.90;1.00
2409;DHT22;8463;48.094;7.970;2023-07-08T15:16:17;33.10;1.00
2409;DHT22;8463;48.094;7.970;2023-07-08T15:18:43;32.90;1.00
2409;DHT22;8463;48.094;7.970;2023-07-08T15:21:11;33.10;1.00
2409;DHT22;8463;48.094;7.970;2023-07-08T15:23:37;32.80;1.00
2409;DHT22;8463;48.094;7.970;2023-07-08T15:26:03;32.80;1.00
2409;DHT22;8463;48.094;7.970;2023-07-08T15:31:04;33.00;1.00
2409;DHT22;8463;48.094;7.970;2023-07-08T15:33:32;33.00;1.00
2409;DHT22;8463;48.094;7.970;2023-07-08T15:36:00;33.20;1.00
2409;DHT22;8463;48.094;7.970;2023-07-08T15:38:25;33.30;1.00
2409;DHT22;8463;48.094;7.970;2023-07-08T15:40:52;33.20;1.00
2409;DHT22;8463;48.094;7.970;2023-07-08T15:43:18;33.40;1.00
2409;DHT22;8463;48.094;7.970;2023-07-08T15:45:43;33.40;1.00
2409;DHT22;8463;48.094;7.970;2023-07-08T15:48:16;33.30;1.00
2409;DHT22;8463;48.094;7.970;2023-07-08T15:50:43;33.20;1.00
2409;DHT22;8463;48.094;7.970;2023-07-08T15:53:10;33.30;1.00
2409;DHT22;8463;48.094;7.970;2023-07-08T15:55:38;33.10;1.00
2409;DHT22;8463;48.094;7.970;2023-07-08T15:58:22;33.20;1.00
2409;DHT22;8463;48.094;7.970;2023-07-08T16:00:48;33.30;1.00
2409;DHT22;8463;48.094;7.970;2023-07-08T16:03:36;33.20;1.00
2409;DHT22;8463;48.094;7.970;2023-07-08T16:06:02;33.60;1.00
2409;DHT22;8463;48.094;7.970;2023-07-08T16:08:28;33.80;1.00
2409;DHT22;8463;48.094;7.970;2023-07-08T16:10:55;33.40;1.00
2409;DHT22;8463;48.094;7.970;2023-07-08T16:13:42;33.30;1.00
2409;DHT22;8463;48.094;7.970;2023-07-08T16:16:13;33.20;1.00
2409;DHT22;8463;48.094;7.970;2023-07-08T16:18:39;33.10;1.00
2409;DHT22;8463;48.094;7.970;2023-07-08T16:21:08;33.10;1.00
2409;DHT22;8463;48.094;7.970;2023-07-08T16:23:34;33.00;1.00
2409;DHT22;8463;48.094;7.970;2023-07-08T16:26:01;32.90;1.00
2409;DHT22;8463;48.094;7.970;2023-07-08T16:28:43;32.90;1.00
2409;DHT22;8463;48.094;7.970;2023-07-08T16:31:27;33.10;1.00
2409;DHT22;8463;48.094;7.970;2023-07-08T16:33:53;33.10;1.00
2409;DHT22;8463;48.094;7.970;2023-07-08T16:36:30;33.10;1.00
2409;DHT22;8463;48.094;7.970;2023-07-08T16:38:56;32.80;1.00
2409;DHT22;8463;48.094;7.970;2023-07-08T16:41:25;32.60;1.00
2409;DHT22;8463;48.094;7.970;2023-07-08T16:43:51;32.50;1.00
2409;DHT22;8463;48.094;7.970;2023-07-08T16:46:21;32.40;1.00
2409;DHT22;8463;48.094;7.970;2023-07-08T16:48:50;32.30;1.00
2409;DHT22;8463;48.094;7.970;2023-07-08T16:51:22;31.90;1.00
2409;DHT22;8463;48.094;7.970;2023-07-08T16:56:18;31.80;1.00
2409;DHT22;8463;48.094;7.970;2023-07-08T16:58:49;31.80;1.00
2409;DHT22;8463;48.094;7.970;2023-07-08T17:01:19;31.70;1.00
2409;DHT22;8463;48.094;7.970;2023-07-08T17:03:45;31.70;1.00
2409;DHT22;8463;48.094;7.970;2023-07-08T17:06:11;31.60;1.00
2409;DHT22;8463;48.094;7.970;2023-07-08T17:08:38;31.60;1.00
2409;DHT22;8463;48.094;7.970;2023-07-08T17:13:30;31.50;1.00
2409;DHT22;8463;48.094;7.970;2023-07-08T17:15:56;31.50;1.00
2409;DHT22;8463;48.094;7.970;2023-07-08T17:18:22;31.60;1.00
2409;DHT22;8463;48.094;7.970;2023-07-08T17:20:52;31.40;1.00
2409;DHT22;8463;48.094;7.970;2023-07-08T17:23:20;31.30;1.00
2409;DHT22;8463;48.094;7.970;2023-07-08T17:25:46;31.20;1.00
2409;DHT22;8463;48.094;7.970;2023-07-08T17:28:12;31.20;1.00
2409;DHT22;8463;48.094;7.970;2023-07-08T17:30:46;31.10;1.00
2409;DHT22;8463;48.094;7.970;2023-07-08T17:33:16;31.00;1.00
2409;DHT22;8463;48.094;7.970;2023-07-08T17:38:19;30.90;1.00
2409;DHT22;8463;48.094;7.970;2023-07-08T17:40:45;30.90;1.00
2409;DHT22;8463;48.094;7.970;2023-07-08T17:43:11;30.80;1.00
2409;DHT22;8463;48.094;7.970;2023-07-08T17:45:44;30.80;1.00
2409;DHT22;8463;48.094;7.970;2023-07-08T17:48:22;30.80;1.00
2409;DHT22;8463;48.094;7.970;2023-07-08T17:50:48;30.60;1.00
2409;DHT22;8463;48.094;7.970;2023-07-08T17:55:40;30.30;1.00
2409;DHT22;8463;48.094;7.970;2023-07-08T17:58:11;30.30;1.00
2409;DHT22;8463;48.094;7.970;2023-07-08T18:03:04;30.10;1.00
2409;DHT22;8463;48.094;7.970;2023-07-08T18:05:31;30.10;1.00
2409;DHT22;8463;48.094;7.970;2023-07-08T18:10:26;29.90;1.00
2409;DHT22;8463;48.094;7.970;2023-07-08T18:17:52;29.60;1.00
2409;DHT22;8463;48.094;7.970;2023-07-08T18:20:19;29.40;1.00
2409;DHT22;8463;48.094;7.970;2023-07-08T18:22:48;29.20;1.00
2409;DHT22;8463;48.094;7.970;2023-07-08T18:25:20;29.20;1.00
2409;DHT22;8463;48.094;7.970;2023-07-08T18:27:46;29.20;1.00
2409;DHT22;8463;48.094;7.970;2023-07-08T18:30:20;29.00;1.00
2409;DHT22;8463;48.094;7.970;2023-07-08T18:32:49;28.90;1.00
2409;DHT22;8463;48.094;7.970;2023-07-08T18:37:41;28.70;1.00
2409;DHT22;8463;48.094;7.970;2023-07-08T18:40:12;28.50;1.00